Xenia, Illinois
Current Conditions -  °F | °C
As of 11:50 AM on Tuesday 21 Oct 2014 (Local Time) from KFOA Reporting Station
Clear Clear  
Wind Chill: 62°   Ceiling: Unl
Heat Index: 62°   Visibility: 10mi
Dew Point: 45°   Wind: 12mph
Humidity: 54%   Direction: 30°NNE
Pressure: 30.12"   Gusts: NA
Location:  38.64°N, 88.63°W
Report Text: KFOA 211650Z AUTO 03010KT 10SM CLR 17/07 A3012 RMK AO2 T01650071
Loading
Personal Weather Stations






























Interactive Weather Map New forecast layout! Learn more

10-Day Weather Forecast

Advertisements
Track Severe Weather on mobile